createdAt,value
2022-09-28T00:02:09.359Z,99688.50
2022-09-28T00:04:38.218Z,99696.78
2022-09-28T00:07:08.336Z,99688.09
2022-09-28T00:09:38.428Z,99688.81
2022-09-28T00:12:07.587Z,99692.34
2022-09-28T00:14:37.054Z,99689.06
2022-09-28T00:17:05.455Z,99685.63
2022-09-28T00:19:34.445Z,99682.63
2022-09-28T00:22:03.373Z,99688.53
2022-09-28T00:24:33.498Z,99686.94
2022-09-28T00:27:03.044Z,99687.97
2022-09-28T00:29:34.102Z,99682.63
2022-09-28T00:32:05.915Z,99687.09
2022-09-28T00:34:38.103Z,99687.03
2022-09-28T00:37:08.976Z,99693.66
2022-09-28T00:39:41.342Z,99692.91
2022-09-28T00:42:17.884Z,99693.41
2022-09-28T00:44:50.360Z,99689.53
2022-09-28T00:47:50.193Z,99693.22
2022-09-28T00:50:27.383Z,99680.19
2022-09-28T00:53:02.760Z,99685.19
2022-09-28T00:55:40.398Z,99683.63
2022-09-28T00:58:16.216Z,99685.66
2022-09-28T01:00:45.236Z,99679.72
2022-09-28T01:03:14.864Z,99672.75
2022-09-28T01:05:44.591Z,99679.78
2022-09-28T01:08:14.444Z,99672.75
2022-09-28T01:10:44.887Z,99662.00
2022-09-28T01:13:14.672Z,99665.28
2022-09-28T01:15:59.256Z,99673.03
2022-09-28T01:18:42.537Z,99668.31
2022-09-28T01:21:17.420Z,99657.16
2022-09-28T01:24:22.736Z,99662.16
2022-09-28T01:27:06.541Z,99657.88
2022-09-28T01:29:49.374Z,99650.19
2022-09-28T01:32:31.822Z,99653.06
2022-09-28T01:35:10.278Z,99649.78
2022-09-28T01:37:49.098Z,99646.69
2022-09-28T01:40:18.687Z,99656.56
2022-09-28T01:42:54.637Z,99650.63
2022-09-28T01:45:28.359Z,99661.84
2022-09-28T01:48:03.823Z,99658.66
2022-09-28T01:50:39.178Z,99647.94
2022-09-28T01:53:12.499Z,99650.44
2022-09-28T01:55:45.594Z,99653.47
2022-09-28T01:58:20.531Z,99660.50
2022-09-28T02:00:55.079Z,99646.06
2022-09-28T02:03:31.008Z,99653.03
2022-09-28T02:06:04.751Z,99652.59
2022-09-28T02:08:39.342Z,99655.88
2022-09-28T02:11:14.896Z,99647.69
2022-09-28T02:13:50.032Z,99657.00
2022-09-28T02:16:24.650Z,99653.97
2022-09-28T02:18:54.965Z,99660.16
2022-09-28T02:21:30.051Z,99662.09
2022-09-28T02:24:04.141Z,99659.44
2022-09-28T02:26:38.115Z,99666.06
2022-09-28T02:29:08.569Z,99664.47
2022-09-28T02:31:37.290Z,99653.13
2022-09-28T02:34:05.911Z,99661.81
2022-09-28T02:36:35.745Z,99669.81
2022-09-28T02:39:04.913Z,99662.94
2022-09-28T02:41:51.025Z,99662.72
2022-09-28T02:44:48.293Z,99664.56
2022-09-28T02:47:28.276Z,99666.28
2022-09-28T02:50:10.058Z,99663.78
2022-09-28T02:53:17.901Z,99657.84
2022-09-28T02:56:08.833Z,99664.25
2022-09-28T02:58:47.959Z,99670.56
2022-09-28T03:01:28.260Z,99672.50
2022-09-28T03:04:08.817Z,99668.88
2022-09-28T03:06:48.527Z,99669.28
2022-09-28T03:09:25.739Z,99681.34
2022-09-28T03:11:59.907Z,99670.88
2022-09-28T03:14:29.712Z,99675.41
2022-09-28T03:17:00.478Z,99677.41
2022-09-28T03:19:33.156Z,99675.81
2022-09-28T03:22:02.348Z,99685.03
2022-09-28T03:24:30.730Z,99688.13
2022-09-28T03:27:00.533Z,99691.13
2022-09-28T03:29:34.758Z,99682.28
2022-09-28T03:32:05.718Z,99679.38
2022-09-28T03:34:35.607Z,99688.34
2022-09-28T03:37:06.049Z,99685.69
2022-09-28T03:39:34.609Z,99684.94
2022-09-28T03:42:03.909Z,99681.81
2022-09-28T03:44:33.066Z,99681.81
2022-09-28T03:47:03.618Z,99669.66
2022-09-28T03:49:32.205Z,99680.56
2022-09-28T03:52:01.111Z,99678.00
2022-09-28T03:54:30.126Z,99681.72
2022-09-28T03:57:00.390Z,99675.53
2022-09-28T03:59:28.991Z,99672.88
2022-09-28T04:01:58.150Z,99682.69
2022-09-28T04:04:28.520Z,99681.84
2022-09-28T04:06:56.975Z,99683.84
2022-09-28T04:09:26.231Z,99678.72
2022-09-28T04:12:04.139Z,99675.94
2022-09-28T04:14:33.187Z,99669.00
2022-09-28T04:17:02.189Z,99676.72
2022-09-28T04:19:34.741Z,99667.72
2022-09-28T04:22:05.127Z,99667.72
2022-09-28T04:24:33.655Z,99670.09
2022-09-28T04:27:16.698Z,99671.16
2022-09-28T04:29:51.309Z,99672.44
2022-09-28T04:32:20.310Z,99683.47
2022-09-28T04:34:51.551Z,99672.22
2022-09-28T04:37:20.688Z,99688.56
2022-09-28T04:39:50.571Z,99684.09
2022-09-28T04:42:19.521Z,99685.47
2022-09-28T04:44:50.075Z,99683.03
2022-09-28T04:47:19.459Z,99675.22
2022-09-28T04:49:49.462Z,99673.19
2022-09-28T04:52:20.057Z,99677.78
2022-09-28T04:54:51.584Z,99674.78
2022-09-28T04:57:21.579Z,99680.56
2022-09-28T04:59:50.995Z,99684.97
2022-09-28T05:02:22.875Z,99683.28
2022-09-28T05:04:55.197Z,99685.41
2022-09-28T05:07:24.162Z,99688.06
2022-09-28T05:09:52.719Z,99677.44
2022-09-28T05:12:22.046Z,99690.75
2022-09-28T05:14:51.732Z,99685.59
2022-09-28T05:17:20.500Z,99692.00
2022-09-28T05:19:50.456Z,99695.00
2022-09-28T05:22:21.225Z,99695.00
2022-09-28T05:24:50.213Z,99696.34
2022-09-28T05:27:19.316Z,99706.81
2022-09-28T05:29:48.394Z,99711.22
2022-09-28T05:32:19.144Z,99703.00
2022-09-28T05:34:47.850Z,99698.50
2022-09-28T05:37:21.351Z,99704.78
2022-09-28T05:39:52.947Z,99704.69
2022-09-28T05:42:33.798Z,99699.13
2022-09-28T05:45:07.581Z,99706.16
2022-09-28T05:47:42.011Z,99702.66
2022-09-28T05:50:18.279Z,99705.00
2022-09-28T05:52:50.304Z,99706.06
2022-09-28T05:55:19.171Z,99707.78
2022-09-28T05:57:47.714Z,99697.78
2022-09-28T06:00:18.625Z,99700.16
2022-09-28T06:02:58.992Z,99693.97
2022-09-28T06:05:28.860Z,99704.25
2022-09-28T06:08:00.158Z,99690.47
2022-09-28T06:10:29.690Z,99695.53
2022-09-28T06:13:00.221Z,99695.53
2022-09-28T06:15:31.912Z,99694.44
2022-09-28T06:18:01.451Z,99698.09
2022-09-28T06:20:34.671Z,99694.25
2022-09-28T06:23:05.786Z,99701.38
2022-09-28T06:25:35.151Z,99706.81
2022-09-28T06:28:06.631Z,99709.94
2022-09-28T06:30:38.498Z,99714.00
2022-09-28T06:33:11.229Z,99709.06
2022-09-28T06:35:40.672Z,99718.38
2022-09-28T06:38:14.137Z,99723.81
2022-09-28T06:40:42.475Z,99728.88
2022-09-28T06:43:15.154Z,99733.97
2022-09-28T06:45:46.595Z,99731.50
2022-09-28T06:48:17.970Z,99740.97
2022-09-28T06:50:47.613Z,99752.03
2022-09-28T06:53:23.446Z,99752.19
2022-09-28T06:55:53.244Z,99759.66
2022-09-28T06:58:23.098Z,99755.84
2022-09-28T07:00:53.334Z,99766.03
2022-09-28T07:03:24.239Z,99769.69
2022-09-28T07:05:55.796Z,99772.81
2022-09-28T07:08:29.234Z,99778.78
2022-09-28T07:10:58.398Z,99788.47
2022-09-28T07:13:48.619Z,99782.47
2022-09-28T07:16:20.619Z,99786.66
2022-09-28T07:18:52.941Z,99783.13
2022-09-28T07:21:29.325Z,99783.19
2022-09-28T07:24:01.287Z,99778.28
2022-09-28T07:26:33.382Z,99783.41
2022-09-28T07:29:02.376Z,99781.72
2022-09-28T07:31:32.317Z,99786.63
2022-09-28T07:34:00.983Z,99785.66
2022-09-28T07:36:30.713Z,99789.75
2022-09-28T07:39:00.667Z,99784.94
2022-09-28T07:41:36.166Z,99786.69
2022-09-28T07:44:06.908Z,99781.22
2022-09-28T07:46:38.756Z,99784.25
2022-09-28T07:49:10.001Z,99794.00
2022-09-28T07:51:45.053Z,99779.81
2022-09-28T07:54:15.240Z,99778.97
2022-09-28T07:56:44.245Z,99776.28
2022-09-28T07:59:14.118Z,99776.31
2022-09-28T08:01:42.891Z,99775.78
2022-09-28T08:04:16.464Z,99775.19
2022-09-28T08:06:48.337Z,99773.94
2022-09-28T08:09:18.794Z,99781.72
2022-09-28T08:11:47.462Z,99785.72
2022-09-28T08:14:16.286Z,99781.72
2022-09-28T08:16:48.540Z,99786.97
2022-09-28T08:19:19.751Z,99789.38
2022-09-28T08:21:48.208Z,99782.88
2022-09-28T08:24:20.170Z,99790.09
2022-09-28T08:26:49.431Z,99787.25
2022-09-28T08:29:18.953Z,99798.31
2022-09-28T08:31:50.795Z,99799.91
2022-09-28T08:34:20.087Z,99793.25
2022-09-28T08:36:48.482Z,99798.19
2022-09-28T08:39:18.807Z,99796.78
2022-09-28T08:41:58.549Z,99794.22
2022-09-28T08:47:33.290Z,99799.59
2022-09-28T08:50:03.956Z,99796.28
2022-09-28T08:52:38.431Z,99800.88
2022-09-28T08:55:15.083Z,99805.25
2022-09-28T08:57:52.215Z,99806.16
2022-09-28T09:00:29.757Z,99808.59
2022-09-28T09:02:59.049Z,99811.75
2022-09-28T09:05:49.681Z,99804.25
2022-09-28T09:08:35.529Z,99811.97
2022-09-28T09:11:15.145Z,99816.84
2022-09-28T09:14:00.315Z,99815.94
2022-09-28T09:16:37.955Z,99817.69
2022-09-28T09:19:17.790Z,99824.31
2022-09-28T09:21:55.955Z,99830.63
2022-09-28T09:24:27.814Z,99826.63
2022-09-28T09:27:14.773Z,99820.50
2022-09-28T09:30:03.878Z,99822.56
2022-09-28T09:32:53.333Z,99823.50
2022-09-28T09:35:59.919Z,99827.47
2022-09-28T09:38:46.417Z,99817.16
2022-09-28T09:41:27.708Z,99814.50
2022-09-28T09:44:35.018Z,99815.44
2022-09-28T09:47:11.269Z,99816.50
2022-09-28T09:49:45.989Z,99815.84
2022-09-28T09:52:23.944Z,99813.72
2022-09-28T09:55:00.273Z,99816.31
2022-09-28T09:57:36.865Z,99809.19
2022-09-28T10:00:13.792Z,99808.75
2022-09-28T10:02:44.518Z,99815.72
2022-09-28T10:05:23.640Z,99814.97
2022-09-28T10:07:57.568Z,99811.94
2022-09-28T10:10:31.667Z,99808.47
2022-09-28T10:13:00.769Z,99822.38
2022-09-28T10:15:34.169Z,99816.50
2022-09-28T10:18:10.449Z,99811.13
2022-09-28T10:20:41.318Z,99813.97
2022-09-28T10:23:24.294Z,99813.78
2022-09-28T10:25:59.833Z,99811.13
2022-09-28T10:28:41.671Z,99810.53
2022-09-28T10:31:39.556Z,99818.75
2022-09-28T10:34:14.249Z,99825.34
2022-09-28T10:36:55.489Z,99817.75
2022-09-28T10:39:33.329Z,99820.75
2022-09-28T10:42:05.981Z,99817.69
2022-09-28T10:44:44.985Z,99816.88
2022-09-28T10:47:23.200Z,99818.44
2022-09-28T10:49:53.793Z,99819.84
2022-09-28T10:52:38.196Z,99813.84
2022-09-28T10:55:37.091Z,99804.66
2022-09-28T10:58:29.276Z,99808.63
2022-09-28T11:01:11.899Z,99809.00
2022-09-28T11:04:08.509Z,99805.81
2022-09-28T11:06:42.159Z,99802.38
2022-09-28T11:09:31.246Z,99809.69
2022-09-28T11:12:07.713Z,99809.31
2022-09-28T11:14:42.736Z,99808.34
2022-09-28T11:17:26.688Z,99813.72
2022-09-28T11:19:58.656Z,99813.31
2022-09-28T11:22:31.151Z,99815.13
2022-09-28T11:25:28.588Z,99816.09
2022-09-28T11:28:03.404Z,99822.47
2022-09-28T11:30:46.182Z,99823.16
2022-09-28T11:33:23.658Z,99827.50
2022-09-28T11:36:15.847Z,99831.88
2022-09-28T11:38:57.975Z,99826.63
2022-09-28T11:41:46.006Z,99826.19
2022-09-28T11:44:37.918Z,99831.44
2022-09-28T11:47:50.820Z,99834.00
2022-09-28T11:50:30.454Z,99846.03
2022-09-28T11:53:23.834Z,99844.69
2022-09-28T11:56:03.296Z,99843.78
2022-09-28T11:58:39.765Z,99841.38
2022-09-28T12:01:20.802Z,99843.56
2022-09-28T12:03:57.433Z,99841.25
2022-09-28T12:06:32.819Z,99842.41
2022-09-28T12:09:14.773Z,99837.91
2022-09-28T12:11:47.114Z,99832.47
2022-09-28T12:14:24.276Z,99829.22
2022-09-28T12:17:08.018Z,99820.19
2022-09-28T12:19:44.075Z,99820.06
2022-09-28T12:22:22.682Z,99816.41
2022-09-28T12:24:59.183Z,99817.19
2022-09-28T12:27:39.402Z,99814.19
2022-09-28T12:30:18.322Z,99816.88
2022-09-28T12:32:52.023Z,99813.88
2022-09-28T12:35:37.518Z,99818.75
2022-09-28T12:38:40.963Z,99820.47
2022-09-28T12:41:25.457Z,99822.00
2022-09-28T12:44:43.628Z,99820.16
2022-09-28T12:47:33.931Z,99825.75
2022-09-28T12:50:38.657Z,99823.59
2022-09-28T12:53:35.816Z,99821.00
2022-09-28T12:56:11.843Z,99822.56
2022-09-28T12:59:00.180Z,99813.09
2022-09-28T13:01:50.810Z,99818.06
2022-09-28T13:05:03.843Z,99814.34
2022-09-28T13:07:40.238Z,99819.44
2022-09-28T13:10:20.573Z,99813.50
2022-09-28T13:13:06.419Z,99812.13
2022-09-28T13:15:52.678Z,99815.28
2022-09-28T13:18:30.517Z,99813.81
2022-09-28T13:21:20.304Z,99819.16
2022-09-28T13:23:51.866Z,99826.09
2022-09-28T13:26:28.150Z,99827.56
2022-09-28T13:29:06.065Z,99830.50
2022-09-28T13:31:40.946Z,99832.88
2022-09-28T13:34:18.449Z,99836.59
2022-09-28T13:36:48.450Z,99841.25
2022-09-28T13:39:56.529Z,99830.56
2022-09-28T13:42:47.602Z,99823.00
2022-09-28T13:45:52.906Z,99830.84
2022-09-28T13:48:30.040Z,99830.81
2022-09-28T13:51:31.818Z,99826.25
2022-09-28T13:54:25.465Z,99829.25
2022-09-28T13:57:02.832Z,99835.75
2022-09-28T13:59:34.323Z,99840.69
2022-09-28T14:02:15.413Z,99834.53
2022-09-28T14:04:59.994Z,99836.28
2022-09-28T14:07:58.211Z,99845.81
2022-09-28T14:10:52.018Z,99842.09
2022-09-28T14:14:03.095Z,99842.38
2022-09-28T14:16:34.222Z,99841.97
2022-09-28T14:19:09.336Z,99846.81
2022-09-28T14:22:07.548Z,99841.56
2022-09-28T14:25:03.823Z,99846.00
2022-09-28T14:27:49.501Z,99857.53
2022-09-28T14:30:26.781Z,99862.72
2022-09-28T14:32:59.754Z,99859.25
2022-09-28T14:35:40.633Z,99859.47
2022-09-28T14:38:37.578Z,99874.00
2022-09-28T14:41:14.373Z,99855.28
2022-09-28T14:44:06.489Z,99860.06
2022-09-28T14:46:53.119Z,99856.38
2022-09-28T14:49:51.216Z,99855.22
2022-09-28T14:52:42.030Z,99854.13
2022-09-28T14:55:18.571Z,99862.63
2022-09-28T14:57:58.510Z,99875.75
2022-09-28T15:00:31.900Z,99867.25
2022-09-28T15:03:11.409Z,99864.03
2022-09-28T15:05:47.113Z,99869.00
2022-09-28T15:08:15.973Z,99872.53
2022-09-28T15:10:50.237Z,99875.78
2022-09-28T15:13:25.522Z,99878.41
2022-09-28T15:16:01.564Z,99885.28
2022-09-28T15:19:12.297Z,99882.00
2022-09-28T15:21:48.019Z,99895.84
2022-09-28T15:24:33.810Z,99891.31
2022-09-28T15:27:15.389Z,99879.94
2022-09-28T15:29:55.866Z,99881.78
2022-09-28T15:32:26.621Z,99888.63
2022-09-28T15:34:56.955Z,99888.00
2022-09-28T15:37:29.299Z,99896.03
2022-09-28T15:40:02.569Z,99901.88
2022-09-28T15:42:41.337Z,99901.50
2022-09-28T15:45:27.108Z,99908.97
2022-09-28T15:47:58.543Z,99920.03
2022-09-28T15:50:31.074Z,99903.25
2022-09-28T15:53:02.954Z,99914.28
2022-09-28T15:55:35.999Z,99923.31
2022-09-28T15:58:18.675Z,99923.53
2022-09-28T16:00:50.099Z,99933.25
2022-09-28T16:03:30.236Z,99927.06
2022-09-28T16:06:10.444Z,99920.69
2022-09-28T16:08:42.932Z,99923.28
2022-09-28T16:11:22.137Z,99927.66
2022-09-28T16:14:19.761Z,99921.34
2022-09-28T16:16:52.165Z,99924.31
2022-09-28T16:19:26.601Z,99925.84
2022-09-28T16:21:59.382Z,99926.22
2022-09-28T16:24:30.521Z,99933.22
2022-09-28T16:27:02.617Z,99937.41
2022-09-28T16:29:40.184Z,99942.09
2022-09-28T16:32:38.385Z,99942.41
2022-09-28T16:35:25.437Z,99944.00
2022-09-28T16:38:05.628Z,99944.06
2022-09-28T16:40:35.252Z,99952.03
2022-09-28T16:43:09.017Z,99954.13
2022-09-28T16:45:41.979Z,99952.59
2022-09-28T16:48:20.791Z,99954.94
2022-09-28T16:50:50.756Z,99960.41
2022-09-28T16:53:37.354Z,99958.81
2022-09-28T16:56:07.854Z,99963.69
2022-09-28T16:58:39.169Z,99954.75
2022-09-28T17:01:13.461Z,99962.19
2022-09-28T17:03:46.776Z,99958.59
2022-09-28T17:06:16.853Z,99966.63
2022-09-28T17:08:46.113Z,99969.53
2022-09-28T17:11:23.722Z,99971.56
2022-09-28T17:13:56.953Z,99976.38
2022-09-28T17:16:57.666Z,99973.56
2022-09-28T17:19:24.320Z,99974.22
2022-09-28T17:21:53.914Z,99981.19
2022-09-28T17:24:23.824Z,99982.50
2022-09-28T17:26:53.580Z,99982.00
2022-09-28T17:29:27.776Z,99986.97
2022-09-28T17:31:59.489Z,99984.38
2022-09-28T17:34:28.812Z,99979.88
2022-09-28T17:36:57.566Z,99994.78
2022-09-28T17:39:28.433Z,99989.19
2022-09-28T17:41:57.318Z,99982.94
2022-09-28T17:44:26.557Z,99986.19
2022-09-28T17:46:55.839Z,99998.69
2022-09-28T17:49:26.647Z,99999.66
2022-09-28T17:51:55.551Z,99994.06
2022-09-28T17:54:26.018Z,99995.78
2022-09-28T17:56:55.917Z,100002.84
2022-09-28T17:59:26.783Z,100002.00
2022-09-28T18:01:58.312Z,100004.78
2022-09-28T18:04:51.418Z,99994.66
2022-09-28T18:07:21.025Z,100001.50
2022-09-28T18:09:57.369Z,99994.94
2022-09-28T18:12:26.395Z,99998.94
2022-09-28T18:14:56.233Z,99989.16
2022-09-28T18:17:24.902Z,99984.03
2022-09-28T18:19:58.831Z,99984.00
2022-09-28T18:22:30.218Z,99982.41
2022-09-28T18:24:59.398Z,99995.28
2022-09-28T18:27:30.455Z,99999.69
2022-09-28T18:29:59.142Z,99995.38
2022-09-28T18:32:29.922Z,99995.06
2022-09-28T18:35:01.309Z,99990.25
2022-09-28T18:37:30.980Z,99996.34
2022-09-28T18:39:59.941Z,99987.94
2022-09-28T18:42:36.321Z,99994.78
2022-09-28T18:45:08.038Z,99991.88
2022-09-28T18:47:38.892Z,99999.53
2022-09-28T18:50:16.157Z,99997.69
2022-09-28T18:52:47.432Z,100002.72
2022-09-28T18:55:17.156Z,99992.06
2022-09-28T18:57:51.583Z,99999.75
2022-09-28T19:00:21.923Z,99993.81
2022-09-28T19:02:52.797Z,99990.28
2022-09-28T19:05:31.068Z,99991.63
2022-09-28T19:08:00.714Z,99996.06
2022-09-28T19:10:32.191Z,99998.06
2022-09-28T19:13:02.453Z,99992.94
2022-09-28T19:15:34.754Z,99991.13
2022-09-28T19:18:04.684Z,99994.13
2022-09-28T19:20:41.185Z,100000.47
2022-09-28T19:23:13.769Z,99992.91
2022-09-28T19:25:48.510Z,99993.44
2022-09-28T19:28:18.880Z,99990.88
2022-09-28T19:30:56.782Z,100001.84
2022-09-28T19:33:28.785Z,100002.00
2022-09-28T19:36:03.831Z,100002.09
2022-09-28T19:38:36.124Z,100004.31
2022-09-28T19:41:40.762Z,99997.09
2022-09-28T19:44:25.383Z,99993.94
2022-09-28T19:47:00.599Z,100000.03
2022-09-28T19:49:37.327Z,99989.66
2022-09-28T19:52:17.897Z,99993.31
2022-09-28T19:54:59.533Z,100008.09
2022-09-28T19:57:31.548Z,100005.41
2022-09-28T20:00:03.572Z,100017.38
2022-09-28T20:02:35.227Z,100015.03
2022-09-28T20:05:05.121Z,100015.03
2022-09-28T20:07:40.341Z,100017.97
2022-09-28T20:10:17.958Z,100024.13
2022-09-28T20:12:49.689Z,100031.13
2022-09-28T20:15:24.246Z,100020.66
2022-09-28T20:17:59.377Z,100020.25
2022-09-28T20:20:31.274Z,100021.34
2022-09-28T20:23:02.281Z,100032.53
2022-09-28T20:25:34.140Z,100025.00
2022-09-28T20:28:03.806Z,100029.47
2022-09-28T20:30:34.283Z,100032.41
2022-09-28T20:33:03.410Z,100031.69
2022-09-28T20:35:33.397Z,100031.69
2022-09-28T20:38:09.630Z,100043.50
2022-09-28T20:40:39.198Z,100043.50
2022-09-28T20:43:09.485Z,100034.09
2022-09-28T20:45:38.764Z,100041.13
2022-09-28T20:48:09.852Z,100036.72
2022-09-28T20:50:39.426Z,100032.56
2022-09-28T20:53:09.687Z,100042.97
2022-09-28T20:55:38.717Z,100045.75
2022-09-28T20:58:10.213Z,100045.88
2022-09-28T21:00:40.085Z,100050.72
2022-09-28T21:03:10.450Z,100048.16
2022-09-28T21:05:39.004Z,100055.47
2022-09-28T21:08:12.442Z,100044.09
2022-09-28T21:10:45.795Z,100053.75
2022-09-28T21:13:14.373Z,100045.22
2022-09-28T21:15:47.924Z,100043.72
2022-09-28T21:18:17.278Z,100052.00
2022-09-28T21:20:47.628Z,100058.31
2022-09-28T21:23:23.989Z,100059.97
2022-09-28T21:26:04.889Z,100063.91
2022-09-28T21:28:34.413Z,100064.63
2022-09-28T21:31:06.539Z,100065.41
2022-09-28T21:33:38.440Z,100069.53
2022-09-28T21:36:11.927Z,100072.03
2022-09-28T21:38:42.678Z,100065.34
2022-09-28T21:41:12.445Z,100071.56
2022-09-28T21:43:41.399Z,100078.88
2022-09-28T21:46:11.303Z,100079.72
2022-09-28T21:48:41.883Z,100078.13
2022-09-28T21:51:14.667Z,100071.25
2022-09-28T21:53:44.827Z,100079.31
2022-09-28T21:56:14.377Z,100082.75
2022-09-28T21:58:42.987Z,100077.59
2022-09-28T22:01:14.853Z,100080.59
2022-09-28T22:03:46.619Z,100080.72
2022-09-28T22:06:17.053Z,100083.22
2022-09-28T22:08:51.132Z,100087.63
2022-09-28T22:11:24.961Z,100078.94
2022-09-28T22:14:00.111Z,100087.09
2022-09-28T22:16:32.852Z,100082.81
2022-09-28T22:19:02.043Z,100089.16
2022-09-28T22:21:35.017Z,100083.91
2022-09-28T22:24:08.968Z,100075.19
2022-09-28T22:26:39.551Z,100080.44
2022-09-28T22:29:11.754Z,100086.72
2022-09-28T22:31:42.111Z,100078.78
2022-09-28T22:34:11.404Z,100083.50
2022-09-28T22:36:41.681Z,100092.81
2022-09-28T22:39:12.192Z,100083.28
2022-09-28T22:41:42.028Z,100079.22
2022-09-28T22:44:12.201Z,100083.63
2022-09-28T22:46:41.277Z,100097.03
2022-09-28T22:49:12.570Z,100103.88
2022-09-28T22:51:41.961Z,100108.56
2022-09-28T22:54:15.632Z,100114.97
2022-09-28T22:56:45.500Z,100117.78
2022-09-28T22:59:14.661Z,100114.25
2022-09-28T23:01:44.322Z,100104.00
2022-09-28T23:04:15.649Z,100105.78
2022-09-28T23:06:44.419Z,100109.53
2022-09-28T23:09:16.081Z,100103.56
2022-09-28T23:11:45.239Z,100112.66
2022-09-28T23:14:15.306Z,100124.41
2022-09-28T23:16:44.915Z,100127.72
2022-09-28T23:19:13.817Z,100123.34
2022-09-28T23:21:42.234Z,100118.44
2022-09-28T23:24:12.081Z,100115.97
2022-09-28T23:26:42.249Z,100108.88
2022-09-28T23:29:12.799Z,100110.91
2022-09-28T23:31:41.365Z,100103.75
2022-09-28T23:34:12.140Z,100112.75
2022-09-28T23:36:40.896Z,100111.13
2022-09-28T23:39:11.702Z,100107.66
2022-09-28T23:41:42.089Z,100113.22
2022-09-28T23:44:10.565Z,100112.53
2022-09-28T23:46:39.332Z,100119.91
2022-09-28T23:49:07.976Z,100120.00
2022-09-28T23:51:36.958Z,100113.81
2022-09-28T23:54:08.086Z,100110.56
2022-09-28T23:56:36.755Z,100114.63
2022-09-28T23:59:09.450Z,100111.84
